sensor_id;sensor_type;location;lat;lon;timestamp;pressure;altitude;pressure_sealevel;temperature;humidity
14204;BME280;7185;51.854;6.622;2022-12-11T00:01:08;100935.53;;;0.77;100.00
14204;BME280;7185;51.854;6.622;2022-12-11T00:03:40;100928.63;;;0.76;100.00
14204;BME280;7185;51.854;6.622;2022-12-11T00:06:14;100926.84;;;0.75;100.00
14204;BME280;7185;51.854;6.622;2022-12-11T00:08:46;100925.88;;;0.70;100.00
14204;BME280;7185;51.854;6.622;2022-12-11T00:11:21;100924.34;;;0.76;100.00
14204;BME280;7185;51.854;6.622;2022-12-11T00:13:53;100926.78;;;0.72;100.00
14204;BME280;7185;51.854;6.622;2022-12-11T00:16:26;100916.63;;;0.78;100.00
14204;BME280;7185;51.854;6.622;2022-12-11T00:18:58;100917.19;;;0.68;100.00
14204;BME280;7185;51.854;6.622;2022-12-11T00:21:29;100905.81;;;0.59;100.00
14204;BME280;7185;51.854;6.622;2022-12-11T00:24:01;100910.13;;;0.60;100.00
14204;BME280;7185;51.854;6.622;2022-12-11T00:26:32;100906.34;;;0.47;100.00
14204;BME280;7185;51.854;6.622;2022-12-11T00:29:04;100906.19;;;0.41;100.00
14204;BME280;7185;51.854;6.622;2022-12-11T00:31:39;100902.75;;;0.42;100.00
14204;BME280;7185;51.854;6.622;2022-12-11T00:34:10;100905.47;;;0.47;100.00
14204;BME280;7185;51.854;6.622;2022-12-11T00:36:42;100912.97;;;0.38;100.00
14204;BME280;7185;51.854;6.622;2022-12-11T00:39:14;100908.13;;;0.50;100.00
14204;BME280;7185;51.854;6.622;2022-12-11T00:41:46;100907.75;;;0.67;100.00
14204;BME280;7185;51.854;6.622;2022-12-11T00:44:17;100909.22;;;0.58;100.00
14204;BME280;7185;51.854;6.622;2022-12-11T00:46:50;100902.56;;;0.67;100.00
14204;BME280;7185;51.854;6.622;2022-12-11T00:49:22;100906.22;;;0.75;100.00
14204;BME280;7185;51.854;6.622;2022-12-11T00:51:53;100903.75;;;0.79;100.00
14204;BME280;7185;51.854;6.622;2022-12-11T00:54:25;100896.56;;;0.68;100.00
14204;BME280;7185;51.854;6.622;2022-12-11T00:56:56;100905.34;;;0.74;100.00
14204;BME280;7185;51.854;6.622;2022-12-11T00:59:28;100902.06;;;0.80;100.00
14204;BME280;7185;51.854;6.622;2022-12-11T01:02:01;100908.78;;;0.75;100.00
14204;BME280;7185;51.854;6.622;2022-12-11T01:04:34;100906.94;;;0.69;100.00
14204;BME280;7185;51.854;6.622;2022-12-11T01:07:05;100895.31;;;0.53;100.00
14204;BME280;7185;51.854;6.622;2022-12-11T01:09:37;100900.75;;;0.64;100.00
14204;BME280;7185;51.854;6.622;2022-12-11T01:12:26;100907.81;;;0.70;100.00
14204;BME280;7185;51.854;6.622;2022-12-11T01:14:57;100898.53;;;0.76;100.00
14204;BME280;7185;51.854;6.622;2022-12-11T01:17:30;100899.75;;;0.59;100.00
14204;BME280;7185;51.854;6.622;2022-12-11T01:20:02;100899.13;;;0.68;100.00
14204;BME280;7185;51.854;6.622;2022-12-11T01:22:34;100906.97;;;0.71;100.00
14204;BME280;7185;51.854;6.622;2022-12-11T01:25:06;100898.69;;;0.83;100.00
14204;BME280;7185;51.854;6.622;2022-12-11T01:27:39;100906.94;;;0.69;100.00
14204;BME280;7185;51.854;6.622;2022-12-11T01:30:11;100899.94;;;0.65;100.00
14204;BME280;7185;51.854;6.622;2022-12-11T01:32:44;100895.56;;;0.62;100.00
14204;BME280;7185;51.854;6.622;2022-12-11T01:35:17;100901.03;;;0.75;100.00
14204;BME280;7185;51.854;6.622;2022-12-11T01:37:49;100898.31;;;0.69;100.00
14204;BME280;7185;51.854;6.622;2022-12-11T01:40:21;100906.16;;;0.72;100.00
14204;BME280;7185;51.854;6.622;2022-12-11T01:42:53;100896.38;;;0.61;100.00
14204;BME280;7185;51.854;6.622;2022-12-11T01:45:31;100882.94;;;0.73;100.00
14204;BME280;7185;51.854;6.622;2022-12-11T01:48:08;100884.16;;;0.86;100.00
14204;BME280;7185;51.854;6.622;2022-12-11T01:50:45;100876.78;;;0.67;100.00
14204;BME280;7185;51.854;6.622;2022-12-11T01:53:20;100882.16;;;0.76;100.00
14204;BME280;7185;51.854;6.622;2022-12-11T01:55:55;100877.59;;;0.66;100.00
14204;BME280;7185;51.854;6.622;2022-12-11T01:58:30;100880.00;;;0.59;100.00
14204;BME280;7185;51.854;6.622;2022-12-11T02:01:02;100877.66;;;0.69;100.00
14204;BME280;7185;51.854;6.622;2022-12-11T02:03:35;100877.59;;;0.66;100.00
14204;BME280;7185;51.854;6.622;2022-12-11T02:06:29;100871.31;;;0.56;100.00
14204;BME280;7185;51.854;6.622;2022-12-11T02:09:01;100867.88;;;0.57;100.00
14204;BME280;7185;51.854;6.622;2022-12-11T02:11:40;100871.91;;;0.79;100.00
14204;BME280;7185;51.854;6.622;2022-12-11T02:14:19;100871.81;;;0.76;100.00
14204;BME280;7185;51.854;6.622;2022-12-11T02:17:00;100869.69;;;0.93;100.00
14204;BME280;7185;51.854;6.622;2022-12-11T02:19:51;100875.06;;;0.69;100.00
14204;BME280;7185;51.854;6.622;2022-12-11T02:22:47;100868.56;;;0.83;100.00
14204;BME280;7185;51.854;6.622;2022-12-11T02:25:28;100867.22;;;0.98;100.00
14204;BME280;7185;51.854;6.622;2022-12-11T02:28:13;100866.28;;;0.95;100.00
14204;BME280;7185;51.854;6.622;2022-12-11T02:30:50;100857.72;;;0.97;100.00
14204;BME280;7185;51.854;6.622;2022-12-11T02:33:31;100858.81;;;1.06;100.00
14204;BME280;7185;51.854;6.622;2022-12-11T02:36:05;100862.97;;;1.00;100.00
14204;BME280;7185;51.854;6.622;2022-12-11T02:38:40;100868.94;;;0.97;100.00
14204;BME280;7185;51.854;6.622;2022-12-11T02:41:19;100873.00;;;0.87;100.00
14204;BME280;7185;51.854;6.622;2022-12-11T02:44:02;100870.56;;;0.93;100.00
14204;BME280;7185;51.854;6.622;2022-12-11T02:46:43;100862.34;;;1.10;100.00
14204;BME280;7185;51.854;6.622;2022-12-11T02:49:34;100862.19;;;1.04;100.00
14204;BME280;7185;51.854;6.622;2022-12-11T02:52:06;100867.38;;;1.04;100.00
14204;BME280;7185;51.854;6.622;2022-12-11T02:54:42;100856.34;;;1.11;100.00
14204;BME280;7185;51.854;6.622;2022-12-11T02:57:41;100860.53;;;1.06;100.00
14204;BME280;7185;51.854;6.622;2022-12-11T03:00:25;100853.78;;;1.11;100.00
14204;BME280;7185;51.854;6.622;2022-12-11T03:03:01;100855.47;;;1.09;100.00
14204;BME280;7185;51.854;6.622;2022-12-11T03:05:43;100853.88;;;1.14;100.00
14204;BME280;7185;51.854;6.622;2022-12-11T03:08:23;100846.94;;;1.13;100.00
14204;BME280;7185;51.854;6.622;2022-12-11T03:10:58;100847.88;;;1.15;100.00
14204;BME280;7185;51.854;6.622;2022-12-11T03:13:32;100852.22;;;1.18;100.00
14204;BME280;7185;51.854;6.622;2022-12-11T03:16:13;100842.88;;;1.23;100.00
14204;BME280;7185;51.854;6.622;2022-12-11T03:18:53;100842.00;;;1.22;100.00
14204;BME280;7185;51.854;6.622;2022-12-11T03:21:33;100841.09;;;1.20;100.00
14204;BME280;7185;51.854;6.622;2022-12-11T03:24:21;100848.28;;;1.32;100.00
14204;BME280;7185;51.854;6.622;2022-12-11T03:27:12;100842.06;;;1.25;100.00
14204;BME280;7185;51.854;6.622;2022-12-11T03:30:07;100848.97;;;1.26;100.00
14204;BME280;7185;51.854;6.622;2022-12-11T03:32:49;100849.91;;;1.29;100.00
14204;BME280;7185;51.854;6.622;2022-12-11T03:35:42;100849.00;;;1.28;100.00
14204;BME280;7185;51.854;6.622;2022-12-11T03:38:21;100849.91;;;1.29;100.00
14204;BME280;7185;51.854;6.622;2022-12-11T03:41:04;100857.72;;;1.32;100.00
14204;BME280;7185;51.854;6.622;2022-12-11T03:43:56;100857.78;;;1.35;100.00
14204;BME280;7185;51.854;6.622;2022-12-11T03:46:36;100854.44;;;1.39;100.00
14204;BME280;7185;51.854;6.622;2022-12-11T03:49:15;100853.59;;;1.40;100.00
14204;BME280;7185;51.854;6.622;2022-12-11T03:51:57;100845.00;;;1.39;100.00
14204;BME280;7185;51.854;6.622;2022-12-11T03:54:40;100846.41;;;1.26;100.00
14204;BME280;7185;51.854;6.622;2022-12-11T03:57:31;100848.91;;;1.23;100.00
14204;BME280;7185;51.854;6.622;2022-12-11T04:00:20;100842.72;;;1.17;100.00
14204;BME280;7185;51.854;6.622;2022-12-11T04:02:57;100840.16;;;1.17;100.00
14204;BME280;7185;51.854;6.622;2022-12-11T04:05:50;100839.34;;;1.19;100.00
14204;BME280;7185;51.854;6.622;2022-12-11T04:08:28;100836.63;;;1.13;100.00
14204;BME280;7185;51.854;6.622;2022-12-11T04:11:02;100840.19;;;1.18;100.00
14204;BME280;7185;51.854;6.622;2022-12-11T04:13:57;100826.19;;;1.10;100.00
14204;BME280;7185;51.854;6.622;2022-12-11T04:16:47;100834.13;;;1.16;100.00
14204;BME280;7185;51.854;6.622;2022-12-11T04:19:25;100831.44;;;1.13;100.00
14204;BME280;7185;51.854;6.622;2022-12-11T04:22:27;100827.91;;;1.09;100.00
14204;BME280;7185;51.854;6.622;2022-12-11T04:25:22;100827.81;;;1.05;100.00
14204;BME280;7185;51.854;6.622;2022-12-11T04:27:59;100822.53;;;1.00;100.00
14204;BME280;7185;51.854;6.622;2022-12-11T04:30:46;100824.31;;;1.03;100.00
14204;BME280;7185;51.854;6.622;2022-12-11T04:33:21;100822.06;;;1.17;100.00
14204;BME280;7185;51.854;6.622;2022-12-11T04:35:58;100820.88;;;1.04;100.00
14204;BME280;7185;51.854;6.622;2022-12-11T04:38:40;100820.84;;;1.01;100.00
14204;BME280;7185;51.854;6.622;2022-12-11T04:41:16;100821.66;;;1.00;100.00
14204;BME280;7185;51.854;6.622;2022-12-11T04:43:54;100818.50;;;1.11;100.00
14204;BME280;7185;51.854;6.622;2022-12-11T04:46:26;100816.03;;;1.16;100.00
14204;BME280;7185;51.854;6.622;2022-12-11T04:49:15;100813.97;;;1.03;100.00
14204;BME280;7185;51.854;6.622;2022-12-11T04:51:50;100811.56;;;1.09;100.00
14204;BME280;7185;51.854;6.622;2022-12-11T04:54:34;100807.97;;;1.04;100.00
14204;BME280;7185;51.854;6.622;2022-12-11T04:57:09;100807.44;;;1.17;100.00
14204;BME280;7185;51.854;6.622;2022-12-11T04:59:57;100807.97;;;1.04;100.00
14204;BME280;7185;51.854;6.622;2022-12-11T05:02:37;100811.00;;;1.22;100.00
14204;BME280;7185;51.854;6.622;2022-12-11T05:05:14;100816.25;;;1.25;100.00
14204;BME280;7185;51.854;6.622;2022-12-11T05:07:58;100818.72;;;1.21;100.00
14204;BME280;7185;51.854;6.622;2022-12-11T05:10:53;100817.75;;;1.17;100.00
14204;BME280;7185;51.854;6.622;2022-12-11T05:13:26;100817.13;;;1.26;100.00
14204;BME280;7185;51.854;6.622;2022-12-11T05:16:05;100815.25;;;1.19;100.00
14204;BME280;7185;51.854;6.622;2022-12-11T05:18:43;100819.56;;;1.20;100.00
14204;BME280;7185;51.854;6.622;2022-12-11T05:21:21;100820.34;;;1.17;100.00
14204;BME280;7185;51.854;6.622;2022-12-11T05:24:06;100823.78;;;1.16;100.00
14204;BME280;7185;51.854;6.622;2022-12-11T05:27:01;100822.97;;;1.19;100.00
14204;BME280;7185;51.854;6.622;2022-12-11T05:29:39;100826.47;;;1.21;100.00
14204;BME280;7185;51.854;6.622;2022-12-11T05:32:19;100819.59;;;1.21;100.00
14204;BME280;7185;51.854;6.622;2022-12-11T05:35:15;100824.97;;;1.31;100.00
14204;BME280;7185;51.854;6.622;2022-12-11T05:37:53;100815.53;;;1.33;100.00
14204;BME280;7185;51.854;6.622;2022-12-11T05:40:31;100818.13;;;1.33;100.00
14204;BME280;7185;51.854;6.622;2022-12-11T05:43:19;100818.06;;;1.30;100.00
14204;BME280;7185;51.854;6.622;2022-12-11T05:46:04;100822.44;;;1.32;100.00
14204;BME280;7185;51.854;6.622;2022-12-11T05:48:51;100815.56;;;1.34;100.00
14204;BME280;7185;51.854;6.622;2022-12-11T05:51:33;100818.13;;;1.33;100.00
14204;BME280;7185;51.854;6.622;2022-12-11T05:54:16;100816.38;;;1.32;100.00
14204;BME280;7185;51.854;6.622;2022-12-11T05:57:02;100819.06;;;1.36;100.00
14204;BME280;7185;51.854;6.622;2022-12-11T05:59:55;100819.72;;;1.26;100.00
14204;BME280;7185;51.854;6.622;2022-12-11T06:02:39;100815.41;;;1.26;100.00
14204;BME280;7185;51.854;6.622;2022-12-11T06:05:17;100810.25;;;1.26;100.00
14204;BME280;7185;51.854;6.622;2022-12-11T06:07:49;100813.75;;;1.29;100.00
14204;BME280;7185;51.854;6.622;2022-12-11T06:10:32;100803.59;;;1.38;100.00
14204;BME280;7185;51.854;6.622;2022-12-11T06:13:17;100804.47;;;1.37;100.00
14204;BME280;7185;51.854;6.622;2022-12-11T06:16:16;100807.19;;;1.45;100.00
14204;BME280;7185;51.854;6.622;2022-12-11T06:19:12;100806.09;;;1.33;100.00
14204;BME280;7185;51.854;6.622;2022-12-11T06:22:10;100792.25;;;1.30;100.00
14204;BME280;7185;51.854;6.622;2022-12-11T06:25:05;100793.97;;;1.31;100.00
14204;BME280;7185;51.854;6.622;2022-12-11T06:27:50;100794.00;;;1.32;100.00
14204;BME280;7185;51.854;6.622;2022-12-11T06:33:33;100795.78;;;1.35;100.00
14204;BME280;7185;51.854;6.622;2022-12-11T06:36:19;100806.13;;;1.35;100.00
14204;BME280;7185;51.854;6.622;2022-12-11T06:39:03;100801.19;;;1.44;100.00
14204;BME280;7185;51.854;6.622;2022-12-11T06:41:55;100799.28;;;1.37;100.00
14204;BME280;7185;51.854;6.622;2022-12-11T06:44:34;100798.41;;;1.36;100.00
14204;BME280;7185;51.854;6.622;2022-12-11T06:47:17;100794.25;;;1.43;100.00
14204;BME280;7185;51.854;6.622;2022-12-11T06:50:07;100801.94;;;1.40;100.00
14204;BME280;7185;51.854;6.622;2022-12-11T06:52:40;100799.06;;;1.27;100.00
14204;BME280;7185;51.854;6.622;2022-12-11T06:55:20;100806.19;;;1.38;100.00
14204;BME280;7185;51.854;6.622;2022-12-11T06:57:57;100801.00;;;1.38;100.00
14204;BME280;7185;51.854;6.622;2022-12-11T07:00:44;100807.78;;;1.33;100.00
14204;BME280;7185;51.854;6.622;2022-12-11T07:03:31;100808.69;;;1.33;100.00
14204;BME280;7185;51.854;6.622;2022-12-11T07:06:50;100810.50;;;1.39;100.00
14204;BME280;7185;51.854;6.622;2022-12-11T07:09:24;100806.34;;;1.44;100.00
14204;BME280;7185;51.854;6.622;2022-12-11T07:12:07;100809.75;;;1.43;100.00
14204;BME280;7185;51.854;6.622;2022-12-11T07:14:47;100811.41;;;1.39;100.00
14204;BME280;7185;51.854;6.622;2022-12-11T07:17:22;100810.63;;;1.43;100.00
14204;BME280;7185;51.854;6.622;2022-12-11T07:19:58;100810.63;;;1.43;100.00
14204;BME280;7185;51.854;6.622;2022-12-11T07:22:33;100812.38;;;1.45;100.00
14204;BME280;7185;51.854;6.622;2022-12-11T07:25:05;100808.94;;;1.44;100.00
14204;BME280;7185;51.854;6.622;2022-12-11T07:27:47;100816.47;;;1.35;100.00
14204;BME280;7185;51.854;6.622;2022-12-11T07:30:19;100806.13;;;1.35;100.00
14204;BME280;7185;51.854;6.622;2022-12-11T07:32:59;100809.53;;;1.34;100.00
14204;BME280;7185;51.854;6.622;2022-12-11T07:35:58;100813.19;;;1.42;100.00
14204;BME280;7185;51.854;6.622;2022-12-11T07:39:01;100805.28;;;1.36;100.00
14204;BME280;7185;51.854;6.622;2022-12-11T07:41:42;100813.19;;;1.42;100.00
14204;BME280;7185;51.854;6.622;2022-12-11T07:44:15;100810.59;;;1.42;100.00
14204;BME280;7185;51.854;6.622;2022-12-11T07:46:47;100818.41;;;1.45;100.00
14204;BME280;7185;51.854;6.622;2022-12-11T07:49:37;100819.16;;;1.39;100.00
14204;BME280;7185;51.854;6.622;2022-12-11T07:52:25;100821.91;;;1.47;100.00
14204;BME280;7185;51.854;6.622;2022-12-11T07:55:11;100825.44;;;1.51;100.00
14204;BME280;7185;51.854;6.622;2022-12-11T07:57:58;100823.66;;;1.48;100.00
14204;BME280;7185;51.854;6.622;2022-12-11T08:04:17;100826.31;;;1.51;100.00
14204;BME280;7185;51.854;6.622;2022-12-11T08:07:03;100825.44;;;1.51;100.00
14204;BME280;7185;51.854;6.622;2022-12-11T08:09:54;100836.00;;;1.62;100.00
14204;BME280;7185;51.854;6.622;2022-12-11T08:19:20;100834.84;;;1.49;100.00
14204;BME280;7185;51.854;6.622;2022-12-11T08:22:07;100833.19;;;1.51;100.00
14204;BME280;7185;51.854;6.622;2022-12-11T08:25:18;100837.28;;;1.42;100.00
14204;BME280;7185;51.854;6.622;2022-12-11T08:31:25;100835.78;;;1.52;100.00
14204;BME280;7185;51.854;6.622;2022-12-11T08:33:56;100838.34;;;1.51;100.00
14204;BME280;7185;51.854;6.622;2022-12-11T08:36:28;100838.34;;;1.51;100.00
14204;BME280;7185;51.854;6.622;2022-12-11T08:39:00;100839.41;;;1.61;100.00
14204;BME280;7185;51.854;6.622;2022-12-11T08:41:31;100826.50;;;1.61;100.00
14204;BME280;7185;51.854;6.622;2022-12-11T08:44:03;100827.41;;;1.63;100.00
14204;BME280;7185;51.854;6.622;2022-12-11T08:46:36;100830.91;;;1.65;100.00
14204;BME280;7185;51.854;6.622;2022-12-11T08:49:08;100830.78;;;1.58;100.00
14204;BME280;7185;51.854;6.622;2022-12-11T08:51:40;100830.56;;;1.49;100.00
14204;BME280;7185;51.854;6.622;2022-12-11T08:54:12;100824.75;;;1.59;100.00
14204;BME280;7185;51.854;6.622;2022-12-11T08:56:43;100826.59;;;1.64;100.00
14204;BME280;7185;51.854;6.622;2022-12-11T08:59:15;100832.59;;;1.63;100.00
14204;BME280;7185;51.854;6.622;2022-12-11T09:01:49;100825.56;;;1.57;100.00
14204;BME280;7185;51.854;6.622;2022-12-11T09:04:20;100820.53;;;1.63;100.00
14204;BME280;7185;51.854;6.622;2022-12-11T09:06:52;100824.81;;;1.63;100.00
14204;BME280;7185;51.854;6.622;2022-12-11T09:09:23;100824.81;;;1.61;100.00
14204;BME280;7185;51.854;6.622;2022-12-11T09:11:55;100824.81;;;1.61;100.00
14204;BME280;7185;51.854;6.622;2022-12-11T09:14:26;100820.28;;;1.52;100.00
14204;BME280;7185;51.854;6.622;2022-12-11T09:16:59;100823.09;;;1.63;100.00
14204;BME280;7185;51.854;6.622;2022-12-11T09:19:31;100817.13;;;1.66;100.00
14204;BME280;7185;51.854;6.622;2022-12-11T09:22:02;100818.81;;;1.64;100.00
14204;BME280;7185;51.854;6.622;2022-12-11T09:24:34;100820.22;;;1.49;100.00
14204;BME280;7185;51.854;6.622;2022-12-11T09:27:06;100827.09;;;1.49;100.00
14204;BME280;7185;51.854;6.622;2022-12-11T09:29:37;100827.16;;;1.50;100.00
14204;BME280;7185;51.854;6.622;2022-12-11T09:32:10;100823.66;;;1.48;100.00
14204;BME280;7185;51.854;6.622;2022-12-11T09:34:42;100828.91;;;1.51;100.00
14204;BME280;7185;51.854;6.622;2022-12-11T09:37:13;100827.19;;;1.53;100.00
14204;BME280;7185;51.854;6.622;2022-12-11T09:39:45;100821.22;;;1.56;100.00
14204;BME280;7185;51.854;6.622;2022-12-11T09:42:20;100821.91;;;1.47;100.00
14204;BME280;7185;51.854;6.622;2022-12-11T09:44:56;100824.63;;;1.53;100.00
14204;BME280;7185;51.854;6.622;2022-12-11T09:47:33;100823.91;;;1.61;100.00
14204;BME280;7185;51.854;6.622;2022-12-11T09:50:13;100817.91;;;1.62;100.00
14204;BME280;7185;51.854;6.622;2022-12-11T09:52:56;100816.25;;;1.65;100.00
14204;BME280;7185;51.854;6.622;2022-12-11T09:55:36;100816.28;;;1.67;100.00
14204;BME280;7185;51.854;6.622;2022-12-11T09:58:19;100818.88;;;1.67;100.00
14204;BME280;7185;51.854;6.622;2022-12-11T10:00:56;100818.59;;;1.53;100.00
14204;BME280;7185;51.854;6.622;2022-12-11T10:06:35;100818.69;;;1.57;100.00
14204;BME280;7185;51.854;6.622;2022-12-11T10:09:16;100818.75;;;1.61;100.00
14204;BME280;7185;51.854;6.622;2022-12-11T10:11:57;100813.69;;;1.65;100.00
14204;BME280;7185;51.854;6.622;2022-12-11T10:14:42;100814.50;;;1.24;100.00
14204;BME280;7185;51.854;6.622;2022-12-11T10:17:19;100824.44;;;1.44;100.00
14204;BME280;7185;51.854;6.622;2022-12-11T10:19:54;100818.69;;;1.57;100.00
14204;BME280;7185;51.854;6.622;2022-12-11T10:22:30;100819.69;;;1.64;100.00
14204;BME280;7185;51.854;6.622;2022-12-11T10:25:05;100815.31;;;1.62;100.00
14204;BME280;7185;51.854;6.622;2022-12-11T10:27:39;100813.56;;;1.61;100.00
14204;BME280;7185;51.854;6.622;2022-12-11T10:30:14;100819.44;;;1.53;100.00
14204;BME280;7185;51.854;6.622;2022-12-11T10:32:51;100810.88;;;1.56;100.00
14204;BME280;7185;51.854;6.622;2022-12-11T10:35:30;100814.97;;;1.45;100.00
14204;BME280;7185;51.854;6.622;2022-12-11T10:38:12;100812.63;;;1.57;100.00
14204;BME280;7185;51.854;6.622;2022-12-11T10:40:49;100811.31;;;1.76;100.00
14204;BME280;7185;51.854;6.622;2022-12-11T10:43:31;100803.38;;;1.67;100.00
14204;BME280;7185;51.854;6.622;2022-12-11T10:46:05;100804.31;;;1.70;100.00
14204;BME280;7185;51.854;6.622;2022-12-11T10:48:44;100803.66;;;1.79;100.00
14204;BME280;7185;51.854;6.622;2022-12-11T10:51:17;100802.72;;;1.77;100.00
14204;BME280;7185;51.854;6.622;2022-12-11T10:53:49;100791.44;;;1.72;100.00
14204;BME280;7185;51.854;6.622;2022-12-11T10:56:25;100785.56;;;1.81;100.00
14204;BME280;7185;51.854;6.622;2022-12-11T10:58:59;100793.34;;;1.82;100.00
14204;BME280;7185;51.854;6.622;2022-12-11T11:01:31;100798.19;;;1.67;100.00
14204;BME280;7185;51.854;6.622;2022-12-11T11:04:06;100793.03;;;1.67;100.00
14204;BME280;7185;51.854;6.622;2022-12-11T11:06:45;100791.38;;;1.70;100.00
14204;BME280;7185;51.854;6.622;2022-12-11T11:09:28;100794.66;;;1.63;100.00
14204;BME280;7185;51.854;6.622;2022-12-11T11:12:00;100792.09;;;1.63;100.00
14204;BME280;7185;51.854;6.622;2022-12-11T11:14:32;100794.84;;;1.71;100.00
14204;BME280;7185;51.854;6.622;2022-12-11T11:17:03;100792.38;;;1.75;100.00
14204;BME280;7185;51.854;6.622;2022-12-11T11:19:37;100784.50;;;1.71;100.00
14204;BME280;7185;51.854;6.622;2022-12-11T11:22:13;100792.03;;;1.60;100.00
14204;BME280;7185;51.854;6.622;2022-12-11T11:24:51;100784.44;;;1.68;100.00
14204;BME280;7185;51.854;6.622;2022-12-11T11:27:28;100777.66;;;1.73;100.00
14204;BME280;7185;51.854;6.622;2022-12-11T11:30:02;100780.09;;;1.67;100.00
14204;BME280;7185;51.854;6.622;2022-12-11T11:32:36;100780.19;;;1.71;100.00
14204;BME280;7185;51.854;6.622;2022-12-11T11:35:18;100772.31;;;1.65;100.00
14204;BME280;7185;51.854;6.622;2022-12-11T11:37:59;100770.69;;;1.69;100.00
14204;BME280;7185;51.854;6.622;2022-12-11T11:40:36;100773.97;;;1.62;100.00
14204;BME280;7185;51.854;6.622;2022-12-11T11:43:15;100775.59;;;1.56;100.00
14204;BME280;7185;51.854;6.622;2022-12-11T11:45:52;100772.44;;;1.70;100.00
14204;BME280;7185;51.854;6.622;2022-12-11T11:48:37;100771.38;;;1.60;100.00
14204;BME280;7185;51.854;6.622;2022-12-11T11:51:13;100772.22;;;1.61;100.00
14204;BME280;7185;51.854;6.622;2022-12-11T11:53:49;100772.31;;;1.64;100.00
14204;BME280;7185;51.854;6.622;2022-12-11T11:56:25;100772.31;;;1.64;100.00
14204;BME280;7185;51.854;6.622;2022-12-11T11:59:02;100772.44;;;1.70;100.00
14204;BME280;7185;51.854;6.622;2022-12-11T12:01:36;100760.22;;;1.63;100.00
14204;BME280;7185;51.854;6.622;2022-12-11T12:04:08;100764.56;;;1.64;100.00
14204;BME280;7185;51.854;6.622;2022-12-11T12:09:42;100768.56;;;1.51;100.00
14204;BME280;7185;51.854;6.622;2022-12-11T12:12:24;100766.94;;;1.54;100.00
14204;BME280;7185;51.854;6.622;2022-12-11T12:15:08;100772.03;;;1.51;100.00
14204;BME280;7185;51.854;6.622;2022-12-11T12:17:52;100768.47;;;1.46;100.00
14204;BME280;7185;51.854;6.622;2022-12-11T12:20:31;100773.38;;;1.34;100.00
14204;BME280;7185;51.854;6.622;2022-12-11T12:23:20;100772.41;;;1.29;100.00
14204;BME280;7185;51.854;6.622;2022-12-11T12:26:01;100761.41;;;1.39;100.00
14204;BME280;7185;51.854;6.622;2022-12-11T12:28:42;100759.25;;;1.57;100.00
14204;BME280;7185;51.854;6.622;2022-12-11T12:31:25;100762.59;;;1.53;100.00
14204;BME280;7185;51.854;6.622;2022-12-11T12:34:04;100759.97;;;1.50;100.00
14204;BME280;7185;51.854;6.622;2022-12-11T12:36:45;100755.09;;;1.66;100.00
14204;BME280;7185;51.854;6.622;2022-12-11T12:39:28;100748.13;;;1.62;100.00
14204;BME280;7185;51.854;6.622;2022-12-11T12:42:10;100752.97;;;1.46;100.00
14204;BME280;7185;51.854;6.622;2022-12-11T12:44:51;100747.63;;;1.37;100.00
14204;BME280;7185;51.854;6.622;2022-12-11T12:47:25;100756.13;;;1.33;100.00
14204;BME280;7185;51.854;6.622;2022-12-11T12:50:00;100754.66;;;1.44;100.00
14204;BME280;7185;51.854;6.622;2022-12-11T12:52:34;100755.91;;;1.23;100.00
14204;BME280;7185;51.854;6.622;2022-12-11T12:55:17;100752.72;;;1.34;100.00
14204;BME280;7185;51.854;6.622;2022-12-11T12:57:55;100753.63;;;1.36;100.00
14204;BME280;7185;51.854;6.622;2022-12-11T13:00:30;100749.63;;;1.50;100.00
14204;BME280;7185;51.854;6.622;2022-12-11T13:03:12;100742.63;;;1.46;100.00
14204;BME280;7185;51.854;6.622;2022-12-11T13:05:54;100747.09;;;1.53;100.00
14204;BME280;7185;51.854;6.622;2022-12-11T13:08:30;100735.66;;;1.42;100.00
14204;BME280;7185;51.854;6.622;2022-12-11T13:11:05;100742.72;;;1.49;100.00
14204;BME280;7185;51.854;6.622;2022-12-11T13:13:40;100736.84;;;1.58;100.00
14204;BME280;7185;51.854;6.622;2022-12-11T13:16:26;100735.91;;;1.54;100.00
14204;BME280;7185;51.854;6.622;2022-12-11T13:18:58;100731.56;;;1.52;100.00
14204;BME280;7185;51.854;6.622;2022-12-11T13:21:31;100732.41;;;1.52;100.00
14204;BME280;7185;51.854;6.622;2022-12-11T13:24:13;100731.53;;;1.50;100.00
14204;BME280;7185;51.854;6.622;2022-12-11T13:26:46;100737.66;;;1.55;100.00
14204;BME280;7185;51.854;6.622;2022-12-11T13:29:31;100732.97;;;1.37;100.00
14204;BME280;7185;51.854;6.622;2022-12-11T13:32:20;100734.03;;;1.46;100.00
14204;BME280;7185;51.854;6.622;2022-12-11T13:34:54;100731.53;;;1.50;100.00
14204;BME280;7185;51.854;6.622;2022-12-11T13:37:30;100733.09;;;1.42;100.00
14204;BME280;7185;51.854;6.622;2022-12-11T13:40:07;100733.41;;;1.57;100.00
14204;BME280;7185;51.854;6.622;2022-12-11T13:42:46;100730.03;;;1.62;100.00
14204;BME280;7185;51.854;6.622;2022-12-11T13:45:26;100731.03;;;1.68;100.00
14204;BME280;7185;51.854;6.622;2022-12-11T13:48:00;100736.13;;;1.64;100.00
14204;BME280;7185;51.854;6.622;2022-12-11T13:50:33;100730.03;;;1.62;100.00
14204;BME280;7185;51.854;6.622;2022-12-11T13:53:05;100744.63;;;1.59;100.00
14204;BME280;7185;51.854;6.622;2022-12-11T13:55:37;100738.53;;;1.56;100.00
14204;BME280;7185;51.854;6.622;2022-12-11T13:58:15;100742.81;;;1.54;100.00
14204;BME280;7185;51.854;6.622;2022-12-11T14:01:01;100746.38;;;1.61;100.00
14204;BME280;7185;51.854;6.622;2022-12-11T14:03:34;100748.84;;;1.54;100.00
14204;BME280;7185;51.854;6.622;2022-12-11T14:06:08;100750.47;;;1.51;100.00
14204;BME280;7185;51.854;6.622;2022-12-11T14:08:42;100750.72;;;1.63;100.00
14204;BME280;7185;51.854;6.622;2022-12-11T14:11:20;100753.09;;;1.52;100.00
14204;BME280;7185;51.854;6.622;2022-12-11T14:13:54;100746.13;;;1.48;100.00
14204;BME280;7185;51.854;6.622;2022-12-11T14:16:28;100747.91;;;1.52;100.00
14204;BME280;7185;51.854;6.622;2022-12-11T14:19:03;100753.28;;;1.60;100.00
14204;BME280;7185;51.854;6.622;2022-12-11T14:21:35;100752.78;;;1.37;100.00
14204;BME280;7185;51.854;6.622;2022-12-11T14:24:11;100744.97;;;1.34;100.00